Time;durP1;ratioP1;P1;durP2;ratioP2;P2;SDS_P1;SDS_P2;PMS_P1;PMS_P2;Temp;Humidity;BMP_temperature;BMP_pressure;BME280_temperature;BME280_humidity;BME280_pressure;Samples;Min_cycle;Max_cycle;Signal;HPM_P1;HPM_P2
2022/05/22 00:00:14;;;;;;;;;1.75;1.75;;;;;19.17;54.00;100932.88;5049595;28;46787;-78
2022/05/22 00:02:41;;;;;;;;;5.25;4.50;;;;;19.15;54.11;100935.63;5034780;28;45413;-76
2022/05/22 00:05:07;;;;;;;;;6.00;5.75;;;;;19.16;54.11;100933.81;5034494;28;45372;-77
2022/05/22 00:07:33;;;;;;;;;3.25;3.00;;;;;19.16;54.33;100932.03;5035025;28;45640;-77
2022/05/22 00:09:59;;;;;;;;;2.25;2.25;;;;;19.14;54.18;100928.53;5037734;28;46081;-77
2022/05/22 00:12:24;;;;;;;;;4.00;4.00;;;;;19.09;54.64;100929.72;5040152;28;45367;-76
2022/05/22 00:14:50;;;;;;;;;3.25;3.25;;;;;19.05;54.68;100928.13;5038265;28;45304;-77
2022/05/22 00:17:15;;;;;;;;;3.00;3.00;;;;;18.96;54.88;100914.28;5035392;28;45603;-77
2022/05/22 00:19:41;;;;;;;;;2.75;2.75;;;;;18.97;54.95;100926.69;5031060;28;48144;-77
2022/05/22 00:22:07;;;;;;;;;7.00;5.00;;;;;18.91;54.83;100926.16;5014330;28;45423;-78
2022/05/22 00:24:33;;;;;;;;;6.25;4.25;;;;;18.89;54.89;100918.19;5013419;28;45480;-77
2022/05/22 00:27:03;;;;;;;;;4.25;4.25;;;;;18.88;54.90;100913.78;5014526;28;45409;-78
2022/05/22 00:29:30;;;;;;;;;4.00;4.00;;;;;18.85;55.32;100913.03;5014185;28;45415;-77
2022/05/22 00:31:56;;;;;;;;;3.75;3.75;;;;;18.80;55.48;100913.25;5014791;28;45539;-77
2022/05/22 00:34:21;;;;;;;;;2.75;2.75;;;;;18.76;55.92;100917.03;5014637;28;45459;-77
2022/05/22 00:36:46;;;;;;;;;4.50;4.50;;;;;18.77;55.78;100913.41;5015332;28;45739;-78
2022/05/22 00:39:12;;;;;;;;;5.25;5.25;;;;;18.78;55.65;100918.69;5015497;28;46304;-78
2022/05/22 00:41:38;;;;;;;;;5.00;2.75;;;;;18.80;55.11;100916.78;5033158;28;45675;-77
2022/05/22 00:44:05;;;;;;;;;4.75;3.75;;;;;18.81;55.20;100906.94;5036266;28;45508;-77
2022/05/22 00:46:32;;;;;;;;;2.00;2.00;;;;;18.80;55.23;100908.75;5034916;28;45516;-77
2022/05/22 00:49:24;;;;;;;;;4.75;4.00;;;;;18.74;55.62;100901.03;5033963;28;46353;-78
2022/05/22 00:51:59;;;;;;;;;2.00;2.00;;;;;18.68;55.90;100895.97;5033876;28;45521;-77
2022/05/22 00:54:29;;;;;;;;;3.00;3.00;;;;;18.70;56.01;100903.94;5035365;28;45420;-77
2022/05/22 00:57:00;;;;;;;;;5.75;3.25;;;;;18.67;55.63;100890.69;5034245;28;45627;-77
2022/05/22 00:59:31;;;;;;;;;1.25;1.25;;;;;18.73;55.92;100890.41;5034110;28;46040;-78
2022/05/22 01:02:01;;;;;;;;;4.50;3.00;;;;;18.71;55.53;100879.75;5034816;28;45417;-77
2022/05/22 01:04:28;;;;;;;;;3.50;2.75;;;;;18.68;55.74;100887.09;5032994;28;45504;-77
2022/05/22 01:06:54;;;;;;;;;3.00;3.00;;;;;18.64;55.84;100870.28;5033662;28;45334;-77
2022/05/22 01:09:20;;;;;;;;;3.25;3.25;;;;;18.64;56.09;100868.50;5036485;28;45367;-78
2022/05/22 01:11:50;;;;;;;;;5.50;5.50;;;;;18.59;56.38;100878.56;5038158;28;45574;-79
2022/05/22 01:14:19;;;;;;;;;3.00;3.00;;;;;18.54;56.51;100867.22;5034362;28;45534;-77
2022/05/22 01:16:45;;;;;;;;;4.50;4.00;;;;;18.49;56.23;100857.66;5034572;28;45534;-77
2022/05/22 01:19:15;;;;;;;;;5.50;4.00;;;;;18.42;56.24;100851.75;5033310;28;46098;-78
2022/05/22 01:21:42;;;;;;;;;5.00;5.00;;;;;18.47;56.38;100855.06;5016194;28;45477;-77
2022/05/22 01:24:09;;;;;;;;;3.00;3.00;;;;;18.45;56.27;100859.63;5014263;28;45398;-78
2022/05/22 01:26:35;;;;;;;;;5.50;5.50;;;;;18.40;56.63;100858.97;5017272;28;45260;-77
2022/05/22 01:29:00;;;;;;;;;3.00;3.00;;;;;18.40;56.34;100851.84;5018037;28;45382;-77
2022/05/22 01:31:26;;;;;;;;;6.75;3.00;;;;;18.35;56.48;100853.00;5028941;28;45276;-77
2022/05/22 01:33:51;;;;;;;;;3.25;2.75;;;;;18.33;56.84;100854.88;5036621;28;45379;-78
2022/05/22 01:36:17;;;;;;;;;4.50;4.50;;;;;18.31;56.68;100852.28;5037269;28;45567;-76
2022/05/22 01:38:43;;;;;;;;;2.25;2.25;;;;;18.31;56.61;100856.75;5039513;28;46077;-76
2022/05/22 01:41:08;;;;;;;;;3.50;3.50;;;;;18.28;56.52;100847.94;5041135;28;45434;-78
2022/05/22 01:43:34;;;;;;;;;5.75;3.00;;;;;18.25;56.74;100847.19;5037520;28;45438;-76
2022/05/22 01:46:01;;;;;;;;;3.00;3.00;;;;;18.24;56.62;100857.03;5037732;28;45461;-76
2022/05/22 01:48:26;;;;;;;;;5.00;4.00;;;;;18.23;56.58;100855.28;5037100;28;46241;-78
2022/05/22 01:50:52;;;;;;;;;5.25;2.75;;;;;18.21;56.32;100851.84;5035645;28;45393;-78
2022/05/22 01:53:20;;;;;;;;;5.00;5.00;;;;;18.22;56.12;100852.69;5036976;28;45495;-78
2022/05/22 01:55:46;;;;;;;;;2.75;2.00;;;;;18.16;56.18;100837.81;5036950;28;45449;-77
2022/05/22 01:58:12;;;;;;;;;4.50;3.00;;;;;18.18;55.76;100848.44;5036638;28;46739;-77
2022/05/22 02:00:38;;;;;;;;;1.75;1.75;;;;;18.14;56.48;100854.88;5036576;28;45553;-77
2022/05/22 02:03:06;;;;;;;;;1.00;1.00;;;;;18.14;56.33;100842.34;5036307;28;45410;-77
2022/05/22 02:05:32;;;;;;;;;3.00;3.00;;;;;18.18;56.48;100835.06;5037201;28;45374;-77
2022/05/22 02:10:42;;;;;;;;;2.75;2.50;;;;;18.09;56.03;100847.06;5042253;28;45348;-81
2022/05/22 02:13:08;;;;;;;;;2.75;2.50;;;;;18.08;56.14;100850.69;5036687;28;45541;-77
2022/05/22 02:15:34;;;;;;;;;1.75;1.00;;;;;18.06;56.28;100841.88;5036494;28;45356;-77
2022/05/22 02:17:59;;;;;;;;;3.00;3.00;;;;;17.97;56.06;100836.94;5035940;28;46118;-76
2022/05/22 02:20:25;;;;;;;;;2.25;2.25;;;;;17.96;56.08;100835.22;5033721;28;45357;-77
2022/05/22 02:22:53;;;;;;;;;6.00;3.00;;;;;17.99;56.16;100852.00;5036598;28;45379;-77
2022/05/22 02:25:26;;;;;;;;;4.00;4.00;;;;;17.98;56.10;100841.38;5036696;28;45436;-80
2022/05/22 02:27:52;;;;;;;;;5.25;3.00;;;;;17.93;56.01;100842.44;5036555;28;46118;-80
2022/05/22 02:30:21;;;;;;;;;2.00;2.00;;;;;17.89;55.93;100845.34;5037618;28;45418;-80
2022/05/22 02:32:47;;;;;;;;;2.25;2.25;;;;;17.82;56.00;100836.69;5037659;28;45544;-81
2022/05/22 02:35:14;;;;;;;;;2.00;2.00;;;;;17.76;55.93;100837.84;5037929;28;45511;-80
2022/05/22 02:37:40;;;;;;;;;1.00;1.00;;;;;17.69;56.29;100838.19;5040056;28;46145;-79
2022/05/22 02:40:06;;;;;;;;;4.50;3.00;;;;;17.64;56.44;100829.50;5043667;28;45362;-80
2022/05/22 02:42:32;;;;;;;;;3.00;3.00;;;;;17.62;56.75;100831.38;5040528;28;45410;-80
2022/05/22 02:44:57;;;;;;;;;5.50;3.75;;;;;17.61;56.60;100835.00;5037714;28;45493;-79
2022/05/22 02:47:23;;;;;;;;;7.00;3.00;;;;;17.63;56.53;100855.38;5037615;28;46246;-80
2022/05/22 02:49:48;;;;;;;;;3.00;3.00;;;;;17.62;56.68;100863.47;5036664;28;45579;-81
2022/05/22 02:52:13;;;;;;;;;3.50;2.25;;;;;17.61;56.61;100859.03;5036344;28;45601;-81
2022/05/22 02:54:39;;;;;;;;;6.75;4.00;;;;;17.61;56.69;100861.72;5037090;28;45386;-81
2022/05/22 02:57:04;;;;;;;;;4.75;4.75;;;;;17.62;56.64;100863.47;5036267;28;46201;-80
2022/05/22 02:59:33;;;;;;;;;4.00;4.00;;;;;17.61;56.73;100867.91;5036198;28;45509;-81
2022/05/22 03:01:59;;;;;;;;;4.25;4.25;;;;;17.63;56.51;100875.88;5036381;28;45471;-79
2022/05/22 03:04:24;;;;;;;;;5.00;5.00;;;;;17.62;56.85;100866.13;5036318;28;45678;-80
2022/05/22 03:06:50;;;;;;;;;5.50;5.50;;;;;17.57;56.84;100856.50;5039848;28;45403;-81
2022/05/22 03:09:16;;;;;;;;;4.00;4.00;;;;;17.59;57.06;100862.63;5042910;28;45323;-79
2022/05/22 03:11:42;;;;;;;;;5.75;4.00;;;;;17.58;56.93;100858.25;5037139;28;45448;-80
2022/05/22 03:14:09;;;;;;;;;3.75;3.75;;;;;17.59;56.91;100859.97;5036100;28;45583;-81
2022/05/22 03:16:35;;;;;;;;;7.00;6.25;;;;;17.57;56.76;100856.50;5034792;28;46365;-80
2022/05/22 03:19:00;;;;;;;;;6.50;6.50;;;;;17.57;57.29;100855.66;5037279;28;45462;-79
2022/05/22 03:21:29;;;;;;;;;4.50;4.25;;;;;17.55;57.09;100845.03;5028220;28;45588;-80
2022/05/22 03:23:54;;;;;;;;;4.50;4.00;;;;;17.54;57.11;100837.09;5018928;28;45304;-80
2022/05/22 03:26:20;;;;;;;;;6.75;6.75;;;;;17.51;56.58;100814.03;5015890;28;45444;-78
2022/05/22 03:28:46;;;;;;;;;5.50;5.00;;;;;17.50;56.88;100814.97;5015425;28;45445;-80
2022/05/22 03:31:12;;;;;;;;;7.50;4.00;;;;;17.53;57.12;100820.16;5015995;28;45394;-79
2022/05/22 03:33:37;;;;;;;;;4.00;4.00;;;;;17.53;56.81;100811.28;5016720;28;45416;-80
2022/05/22 03:36:04;;;;;;;;;4.00;4.00;;;;;17.53;56.91;100808.63;5018229;28;45642;-79
2022/05/22 03:38:30;;;;;;;;;6.75;5.00;;;;;17.51;56.97;100813.19;5020303;28;45499;-80
2022/05/22 03:40:55;;;;;;;;;1.25;1.25;;;;;17.51;56.99;100808.69;5016828;28;45351;-80
2022/05/22 03:43:20;;;;;;;;;2.75;2.75;;;;;17.51;56.84;100802.50;5014000;28;45419;-78
2022/05/22 03:45:46;;;;;;;;;5.00;5.00;;;;;17.53;56.61;100812.16;5015055;28;46012;-79
2022/05/22 03:48:12;;;;;;;;;3.75;3.75;;;;;17.53;56.58;100806.81;5015121;28;45426;-79
2022/05/22 03:50:38;;;;;;;;;2.75;2.75;;;;;17.53;56.53;100801.47;5016038;28;45399;-80
2022/05/22 03:53:04;;;;;;;;;3.00;3.00;;;;;17.54;56.39;100811.22;5015747;28;45332;-81
2022/05/22 03:55:30;;;;;;;;;3.00;3.00;;;;;17.50;56.33;100811.44;5015387;28;45486;-80
2022/05/22 03:57:55;;;;;;;;;6.00;6.00;;;;;17.48;56.25;100799.97;5015206;28;45538;-80
2022/05/22 04:00:23;;;;;;;;;6.25;3.50;;;;;17.49;56.27;100799.00;5022495;28;45424;-81
2022/05/22 04:02:49;;;;;;;;;4.00;3.75;;;;;17.43;56.32;100797.50;5037032;28;45496;-80
2022/05/22 04:05:14;;;;;;;;;6.00;6.00;;;;;17.45;56.54;100798.28;5038668;28;46377;-80
2022/05/22 04:07:48;;;;;;;;;4.00;3.00;;;;;17.47;56.50;100785.72;5043187;28;45318;-80
2022/05/22 04:10:15;;;;;;;;;4.25;3.00;;;;;17.44;55.97;100785.84;5035268;28;45521;-79
2022/05/22 04:12:42;;;;;;;;;5.00;3.00;;;;;17.37;55.81;100773.72;5035052;28;45533;-79
2022/05/22 04:15:09;;;;;;;;;3.00;2.00;;;;;17.40;56.18;100773.59;5035361;28;45528;-80
2022/05/22 04:17:35;;;;;;;;;2.75;2.75;;;;;17.40;56.22;100769.09;5034844;28;45367;-80
2022/05/22 04:20:00;;;;;;;;;2.00;2.00;;;;;17.37;56.00;100773.72;5032573;28;45387;-79
2022/05/22 04:22:26;;;;;;;;;3.00;3.00;;;;;17.32;55.52;100765.03;5034443;28;45391;-80
2022/05/22 04:27:40;;;;;;;;;3.75;3.00;;;;;17.38;55.55;100791.47;5034681;28;45375;-81
2022/05/22 04:30:08;;;;;;;;;3.00;3.00;;;;;17.42;55.37;100776.19;5036607;28;45371;-81
2022/05/22 04:32:34;;;;;;;;;5.00;3.00;;;;;17.42;55.45;100773.53;5039849;28;45613;-81
2022/05/22 04:34:59;;;;;;;;;3.50;2.25;;;;;17.42;55.33;100782.38;5039993;28;46337;-80
2022/05/22 04:37:24;;;;;;;;;1.75;1.00;;;;;17.42;55.30;100776.19;5041363;28;45264;-80
2022/05/22 04:39:50;;;;;;;;;2.75;2.75;;;;;17.47;55.30;100788.38;5035798;28;45336;-81
2022/05/22 04:42:15;;;;;;;;;5.00;2.75;;;;;17.48;55.31;100782.09;5035309;28;45333;-81
2022/05/22 04:44:41;;;;;;;;;3.00;2.00;;;;;17.44;55.57;100785.84;5033407;28;46488;-77
2022/05/22 04:47:06;;;;;;;;;5.00;3.00;;;;;17.45;55.24;100790.25;5032797;28;45409;-77
2022/05/22 04:49:32;;;;;;;;;2.75;2.75;;;;;17.42;55.19;100793.06;5033750;28;45343;-78
2022/05/22 04:51:58;;;;;;;;;6.00;3.00;;;;;17.46;55.45;100794.69;5034607;28;45434;-77
2022/05/22 04:54:24;;;;;;;;;3.50;2.00;;;;;17.38;55.03;100795.03;5033720;28;45527;-78
2022/05/22 04:56:50;;;;;;;;;5.25;2.75;;;;;17.40;55.11;100797.63;5033660;28;45525;-78
2022/05/22 04:59:16;;;;;;;;;2.75;2.75;;;;;17.39;54.99;100799.41;5034624;28;45531;-78
2022/05/22 05:01:41;;;;;;;;;6.00;3.00;;;;;17.44;55.34;100796.53;5037435;28;45968;-76
2022/05/22 05:04:07;;;;;;;;;6.50;3.75;;;;;17.49;54.69;100797.22;5038995;28;45507;-77
2022/05/22 05:06:32;;;;;;;;;3.00;2.50;;;;;17.58;54.99;100802.13;5043286;28;45865;-76
2022/05/22 05:08:58;;;;;;;;;6.25;3.00;;;;;17.70;54.76;100800.72;5038271;28;45375;-77
2022/05/22 05:11:23;;;;;;;;;2.75;2.75;;;;;17.79;54.34;100811.91;5038006;28;45610;-77
2022/05/22 05:13:49;;;;;;;;;2.00;2.00;;;;;17.84;54.08;100801.84;5037458;28;46257;-77
2022/05/22 05:16:14;;;;;;;;;4.25;3.00;;;;;17.96;53.99;100797.78;5037525;28;45403;-76
2022/05/22 05:18:40;;;;;;;;;2.50;2.00;;;;;18.06;53.74;100793.72;5037061;28;45371;-78
2022/05/22 05:21:09;;;;;;;;;1.75;1.75;;;;;18.17;53.34;100804.75;5035360;28;45649;-77
2022/05/22 05:23:35;;;;;;;;;3.00;3.00;;;;;18.22;52.99;100799.19;5037103;28;45614;-75
2022/05/22 05:26:00;;;;;;;;;2.75;2.75;;;;;18.25;52.22;100799.94;5036904;28;45495;-77
2022/05/22 05:28:27;;;;;;;;;4.50;2.25;;;;;18.29;52.23;100804.19;5037644;28;45593;-77
2022/05/22 05:30:52;;;;;;;;;3.50;3.00;;;;;18.40;51.86;100805.47;5037988;28;45550;-78
2022/05/22 05:33:17;;;;;;;;;2.00;2.00;;;;;18.42;52.30;100815.16;5038757;28;45355;-77
2022/05/22 05:35:43;;;;;;;;;2.00;2.00;;;;;18.46;51.99;100813.19;5042841;28;45441;-78
2022/05/22 05:38:09;;;;;;;;;2.75;2.75;;;;;18.55;52.10;100812.72;5037622;28;45460;-78
2022/05/22 05:40:35;;;;;;;;;2.75;2.00;;;;;18.70;51.70;100815.59;5037041;28;45474;-77
2022/05/22 05:43:01;;;;;;;;;3.75;2.50;;;;;18.89;51.73;100802.16;5035841;28;46349;-78
2022/05/22 05:45:27;;;;;;;;;2.75;2.75;;;;;19.05;51.01;100808.47;5036676;28;45368;-76
2022/05/22 05:47:52;;;;;;;;;3.50;3.50;;;;;19.12;50.41;100811.72;5037015;28;45320;-76
2022/05/22 05:50:23;;;;;;;;;3.50;2.00;;;;;19.28;50.84;100817.13;5036584;28;45532;-76
2022/05/22 05:52:56;;;;;;;;;5.00;5.00;;;;;19.42;50.10;100811.91;5036293;28;45477;-78
2022/05/22 05:55:22;;;;;;;;;5.50;3.00;;;;;19.60;49.56;100809.16;5037171;28;45443;-79
2022/05/22 05:57:48;;;;;;;;;2.00;2.00;;;;;19.73;50.08;100799.53;5036727;28;45376;-78
2022/05/22 06:00:17;;;;;;;;;3.00;2.75;;;;;19.86;48.95;100786.34;5036205;28;45544;-80
2022/05/22 06:02:43;;;;;;;;;2.75;2.00;;;;;20.07;48.44;100784.25;5040873;28;45601;-81
2022/05/22 06:05:10;;;;;;;;;3.75;2.00;;;;;20.42;47.52;100784.94;5046725;28;45371;-81
2022/05/22 06:07:35;;;;;;;;;4.00;3.50;;;;;20.70;47.03;100764.53;5042981;28;45572;-80
2022/05/22 06:10:00;;;;;;;;;3.75;3.00;;;;;20.84;46.07;100768.22;5036834;28;45481;-81
2022/05/22 06:12:26;;;;;;;;;2.25;2.00;;;;;21.08;46.58;100766.75;5036828;28;45407;-78
2022/05/22 06:14:52;;;;;;;;;4.00;3.00;;;;;21.25;45.70;100764.84;5036203;28;45372;-78
2022/05/22 06:17:17;;;;;;;;;2.75;2.75;;;;;21.59;45.48;100765.44;5035683;28;45697;-77
2022/05/22 06:19:55;;;;;;;;;2.00;2.00;;;;;21.70;44.98;100760.25;5035513;28;45430;-77
2022/05/22 06:22:25;;;;;;;;;1.75;1.75;;;;;21.55;44.25;100742.41;5036170;28;45378;-79
2022/05/22 06:24:51;;;;;;;;;2.00;1.50;;;;;21.26;44.40;100728.97;5036781;28;45458;-80
2022/05/22 06:27:20;;;;;;;;;2.00;2.00;;;;;21.33;44.47;100740.19;5037538;28;45466;-80
2022/05/22 06:29:46;;;;;;;;;3.00;3.00;;;;;21.46;44.17;100739.31;5037855;28;45450;-77
2022/05/22 06:32:14;;;;;;;;;2.00;1.00;;;;;21.73;43.98;100725.09;5037985;28;45486;-77
2022/05/22 06:34:41;;;;;;;;;4.00;3.00;;;;;21.95;43.57;100713.78;5040511;28;45524;-81
2022/05/22 06:37:10;;;;;;;;;1.75;1.75;;;;;21.95;43.01;100708.41;5037506;28;45500;-78
2022/05/22 06:39:52;;;;;;;;;3.00;3.00;;;;;21.80;43.69;100699.53;5036317;28;45390;-80
2022/05/22 06:42:25;;;;;;;;;4.75;3.00;;;;;21.73;43.92;100690.13;5037934;28;45385;-81
2022/05/22 06:45:09;;;;;;;;;2.25;2.00;;;;;21.84;43.90;100694.81;5052228;28;45886;-78
2022/05/22 06:47:35;;;;;;;;;1.75;1.75;;;;;21.83;43.69;100693.97;5038936;28;45438;-81
2022/05/22 06:50:05;;;;;;;;;2.00;2.00;;;;;21.99;43.61;100703.72;5052648;28;45525;-80
2022/05/22 06:52:32;;;;;;;;;1.00;1.00;;;;;22.04;43.71;100693.50;5036812;28;46704;-80
2022/05/22 06:54:59;;;;;;;;;2.50;2.00;;;;;22.37;42.74;100699.47;5036923;28;45395;-81
2022/05/22 06:57:24;;;;;;;;;2.50;2.50;;;;;22.37;42.05;100689.56;5052388;28;45462;-81
2022/05/22 06:59:54;;;;;;;;;2.00;2.00;;;;;22.57;42.05;100695.41;5037654;28;45469;-81
2022/05/22 07:02:20;;;;;;;;;3.00;3.00;;;;;22.70;41.92;100701.69;5042794;28;45339;-81
2022/05/22 07:04:45;;;;;;;;;2.25;2.25;;;;;22.94;41.53;100696.44;5043409;28;45497;-80
2022/05/22 07:07:11;;;;;;;;;4.00;4.00;;;;;23.10;40.94;100716.94;5023837;28;45478;-81
2022/05/22 07:09:37;;;;;;;;;6.50;4.00;;;;;23.47;40.67;100717.84;5020966;28;45266;-83
2022/05/22 07:12:07;;;;;;;;;2.75;2.75;;;;;23.73;40.36;100715.97;5021373;28;45346;-81
2022/05/22 07:14:32;;;;;;;;;3.25;3.25;;;;;23.67;40.40;100691.25;5016303;28;45566;-78
2022/05/22 07:17:00;;;;;;;;;2.00;2.00;;;;;23.36;40.63;100680.03;5016648;28;45418;-78
2022/05/22 07:19:25;;;;;;;;;2.50;2.50;;;;;23.09;41.31;100702.56;5024564;28;45330;-82
2022/05/22 07:21:51;;;;;;;;;3.00;3.00;;;;;22.91;41.27;100682.28;5016714;28;45354;-81
2022/05/22 07:24:16;;;;;;;;;2.50;1.50;;;;;22.75;42.10;100702.22;5014878;28;45465;-80
2022/05/22 07:26:42;;;;;;;;;3.00;3.00;;;;;22.41;42.25;100661.47;5016860;28;45482;-81
2022/05/22 07:29:08;;;;;;;;;4.00;2.00;;;;;22.32;42.43;100668.31;5016571;28;45455;-79
2022/05/22 07:31:34;;;;;;;;;2.50;2.50;;;;;21.98;42.84;100658.94;5019441;28;46289;-81
2022/05/22 07:34:00;;;;;;;;;2.00;2.00;;;;;21.85;43.44;100664.28;5020628;28;45418;-82
2022/05/22 07:36:26;;;;;;;;;4.00;3.00;;;;;21.82;44.24;100665.31;5016271;28;45477;-79
2022/05/22 07:38:51;;;;;;;;;1.50;1.50;;;;;21.98;43.78;100681.31;5018109;28;45396;-81
2022/05/22 07:41:17;;;;;;;;;0.25;0.25;;;;;22.01;43.53;100691.00;5017839;28;46160;-81
2022/05/22 07:43:43;;;;;;;;;1.75;1.75;;;;;22.02;44.02;100673.91;5018794;28;45407;-81
2022/05/22 07:46:12;;;;;;;;;2.00;2.00;;;;;22.23;43.43;100686.88;5018148;28;45348;-81
2022/05/22 07:48:38;;;;;;;;;2.00;2.00;;;;;22.40;43.36;100685.78;5016865;28;45602;-81
2022/05/22 07:51:04;;;;;;;;;2.00;2.00;;;;;22.79;42.38;100684.00;5015702;28;45454;-80
2022/05/22 07:53:31;;;;;;;;;4.00;2.00;;;;;22.79;42.18;100666.03;5015122;28;45403;-78
2022/05/22 07:55:56;;;;;;;;;1.00;1.00;;;;;22.86;41.82;100656.50;5016948;28;45471;-80
2022/05/22 07:58:23;;;;;;;;;2.00;2.00;;;;;22.96;42.01;100656.75;5016366;28;45578;-82
2022/05/22 08:00:50;;;;;;;;;1.50;1.50;;;;;23.19;42.29;100663.22;5019250;28;46030;-81
2022/05/22 08:03:17;;;;;;;;;2.00;2.00;;;;;23.30;42.13;100648.97;5018593;28;45352;-81
2022/05/22 08:05:43;;;;;;;;;4.25;3.00;;;;;23.60;40.65;100650.41;5016408;28;45474;-82
2022/05/22 08:08:09;;;;;;;;;3.00;3.00;;;;;23.74;39.64;100652.06;5016639;28;45640;-81
2022/05/22 08:10:36;;;;;;;;;1.75;1.75;;;;;23.79;39.24;100641.78;5017855;28;45402;-81
2022/05/22 08:13:04;;;;;;;;;1.00;1.00;;;;;24.28;38.88;100638.13;5016072;28;45449;-81
2022/05/22 08:15:31;;;;;;;;;1.00;1.00;;;;;24.43;37.97;100632.50;5015552;28;45373;-80
2022/05/22 08:17:57;;;;;;;;;2.00;2.00;;;;;24.65;37.84;100629.03;5015666;28;45325;-82
2022/05/22 08:20:22;;;;;;;;;1.00;1.00;;;;;24.62;37.97;100597.69;5021252;28;47175;-81
2022/05/22 08:22:55;;;;;;;;;2.00;2.00;;;;;25.08;38.28;100608.53;5036025;28;45403;-79
2022/05/22 08:25:22;;;;;;;;;4.00;2.50;;;;;25.40;37.41;100588.84;5034951;28;45450;-78
2022/05/22 08:27:47;;;;;;;;;2.75;2.00;;;;;25.42;37.70;100567.97;5035198;28;45344;-78
2022/05/22 08:30:15;;;;;;;;;2.00;1.00;;;;;25.57;37.44;100579.34;5035647;28;46384;-77
2022/05/22 08:32:43;;;;;;;;;2.00;2.00;;;;;26.05;37.03;100587.94;5038755;28;45441;-78
2022/05/22 08:35:11;;;;;;;;;1.00;1.00;;;;;26.28;36.71;100581.50;5035101;28;45311;-77
2022/05/22 08:37:36;;;;;;;;;2.00;2.00;;;;;26.30;36.17;100593.94;5035543;28;45505;-77
2022/05/22 08:40:04;;;;;;;;;2.00;2.00;;;;;26.51;35.61;100602.06;5032927;28;48141;-77
2022/05/22 08:43:10;;;;;;;;;4.50;2.00;;;;;26.66;35.28;100604.41;5034469;28;45628;-78
2022/05/22 08:45:42;;;;;;;;;3.00;2.00;;;;;26.56;35.17;100610.63;5034185;28;45453;-78
2022/05/22 08:48:11;;;;;;;;;1.00;1.00;;;;;26.29;35.56;100607.63;5033915;28;45435;-77
2022/05/22 08:50:37;;;;;;;;;2.00;2.00;;;;;26.23;35.43;100592.75;5034696;28;45479;-78
2022/05/22 08:53:11;;;;;;;;;1.00;1.00;;;;;26.26;35.26;100606.03;5035267;28;45763;-80
2022/05/22 08:58:57;;;;;;;;;1.00;1.00;;;;;26.31;35.15;100606.47;5035504;28;45445;-77
2022/05/22 09:01:31;;;;;;;;;1.00;1.00;;;;;26.83;36.24;100611.97;5019512;28;45414;-78
2022/05/22 09:04:12;;;;;;;;;1.75;1.75;;;;;27.31;34.05;100605.00;5017175;28;45366;-79
2022/05/22 09:07:13;;;;;;;;;1.00;1.00;;;;;27.54;34.03;100596.66;5029644;28;45606;-81
2022/05/22 09:09:41;;;;;;;;;2.00;2.00;;;;;27.37;33.90;100588.19;5011348;28;45551;-82
2022/05/22 09:12:28;;;;;;;;;0.25;0.25;;;;;27.21;33.75;100587.81;5015031;28;45507;-82
2022/05/22 09:15:21;;;;;;;;;2.00;1.75;;;;;27.23;33.56;100588.56;5013541;28;45502;-80
2022/05/22 09:17:58;;;;;;;;;1.50;1.50;;;;;27.24;33.55;100582.13;5015449;28;45380;-81
2022/05/22 09:20:37;;;;;;;;;1.00;1.00;;;;;27.37;34.07;100573.78;5022298;28;45617;-81
2022/05/22 09:23:05;;;;;;;;;1.00;1.00;;;;;27.53;33.85;100575.94;5033595;28;45641;-81
2022/05/22 09:25:56;;;;;;;;;2.00;2.00;;;;;27.46;33.81;100573.78;5033812;28;45434;-82
2022/05/22 09:28:33;;;;;;;;;1.00;1.00;;;;;27.48;34.21;100563.66;5038174;28;45521;-81
2022/05/22 09:31:17;;;;;;;;;1.50;1.50;;;;;27.45;33.71;100557.66;5042789;28;45599;-80
2022/05/22 09:33:50;;;;;;;;;1.00;1.00;;;;;27.11;34.16;100555.28;5038807;28;45506;-81
2022/05/22 09:36:53;;;;;;;;;1.00;1.00;;;;;27.02;34.43;100547.97;5035103;28;45248;-83
2022/05/22 09:39:37;;;;;;;;;0.25;0.25;;;;;26.87;34.14;100558.31;5036865;28;45341;-81
2022/05/22 09:42:03;;;;;;;;;1.00;1.00;;;;;26.60;35.91;100548.91;5034691;28;45406;-81
2022/05/22 09:44:40;;;;;;;;;1.25;1.25;;;;;26.35;35.36;100540.22;5034248;28;45487;-77
2022/05/22 09:47:33;;;;;;;;;1.00;1.00;;;;;25.96;35.94;100542.63;5037580;28;45470;-81
2022/05/22 09:50:14;;;;;;;;;1.00;1.00;;;;;25.56;36.02;100537.91;5036633;28;45438;-79
2022/05/22 09:52:59;;;;;;;;;2.00;2.00;;;;;25.15;36.15;100520.53;5037405;28;45417;-79
2022/05/22 09:55:24;;;;;;;;;1.50;0.75;;;;;24.69;35.95;100537.78;5036993;28;45442;-79
2022/05/22 09:58:22;;;;;;;;;1.00;1.00;;;;;24.34;36.43;100509.00;5039827;28;45468;-79
2022/05/22 10:00:56;;;;;;;;;2.00;2.00;;;;;24.24;37.59;100520.53;5039710;28;45356;-78
2022/05/22 10:03:33;;;;;;;;;2.00;2.00;;;;;24.07;37.37;100508.34;5038278;28;45458;-81
2022/05/22 10:06:22;;;;;;;;;3.00;3.00;;;;;24.01;37.79;100486.41;5037385;28;46368;-81
2022/05/22 10:09:06;;;;;;;;;2.00;2.00;;;;;23.67;37.75;100483.56;5037901;28;45467;-81
2022/05/22 10:11:56;;;;;;;;;2.75;2.00;;;;;23.27;37.99;100462.31;5053819;28;45305;-81
2022/05/22 10:14:43;;;;;;;;;3.50;3.50;;;;;22.99;38.80;100472.44;5037070;28;45565;-82
2022/05/22 10:17:23;;;;;;;;;3.00;3.00;;;;;22.89;39.59;100478.47;5037377;28;45413;-83
2022/05/22 10:20:06;;;;;;;;;2.75;2.75;;;;;23.01;39.69;100492.03;5035573;28;45398;-81
2022/05/22 10:22:56;;;;;;;;;3.50;3.50;;;;;23.15;39.43;100494.59;5038717;28;45322;-81
2022/05/22 10:25:37;;;;;;;;;2.75;2.75;;;;;23.07;39.85;100478.97;5044902;28;45469;-81
2022/05/22 10:28:06;;;;;;;;;2.00;2.00;;;;;22.91;40.67;100458.66;5041144;28;46236;-82
2022/05/22 10:30:45;;;;;;;;;2.50;1.50;;;;;22.71;40.94;100467.25;5039318;28;45505;-81
2022/05/22 10:33:27;;;;;;;;;3.75;3.00;;;;;22.54;41.31;100457.66;5039294;28;45402;-81
2022/05/22 10:35:58;;;;;;;;;3.00;3.00;;;;;22.46;41.76;100443.91;5036437;28;45463;-78
2022/05/22 10:38:30;;;;;;;;;2.00;2.00;;;;;22.31;42.13;100402.78;5037806;28;46372;-81
2022/05/22 10:43:43;;;;;;;;;3.50;3.50;;;;;22.24;42.87;100419.47;5039332;28;45462;-82
2022/05/22 10:46:09;;;;;;;;;2.50;2.00;;;;;22.09;42.77;100422.28;5037242;28;45417;-82
2022/05/22 10:48:47;;;;;;;;;2.00;2.00;;;;;22.06;43.04;100405.47;5036866;28;46217;-81
2022/05/22 10:51:22;;;;;;;;;5.00;3.25;;;;;22.01;43.98;100411.19;5034618;28;45476;-78
2022/05/22 10:53:51;;;;;;;;;3.25;3.00;;;;;21.90;44.37;100403.03;5034372;28;45422;-78
2022/05/22 10:56:18;;;;;;;;;5.00;5.00;;;;;21.83;44.35;100389.13;5036481;28;45293;-82
2022/05/22 10:58:54;;;;;;;;;2.00;2.00;;;;;21.76;44.74;100380.66;5040028;28;46067;-80
2022/05/22 11:01:40;;;;;;;;;3.00;3.00;;;;;21.78;45.45;100376.00;5043004;28;45518;-82
2022/05/22 11:04:08;;;;;;;;;3.75;2.75;;;;;21.86;45.46;100380.00;5037178;28;45331;-82
2022/05/22 11:06:36;;;;;;;;;3.50;3.50;;;;;21.79;45.46;100385.81;5036350;28;45281;-78
2022/05/22 11:09:04;;;;;;;;;3.75;3.75;;;;;21.61;45.95;100397.84;5035737;28;46066;-79
2022/05/22 11:11:33;;;;;;;;;4.00;4.00;;;;;21.59;46.88;100410.53;5035336;28;46277;-78
2022/05/22 11:14:08;;;;;;;;;4.25;4.25;;;;;21.53;50.01;100405.56;5035157;28;45449;-79
2022/05/22 11:16:33;;;;;;;;;4.00;4.00;;;;;21.30;52.95;100421.41;5035682;28;45532;-78
2022/05/22 11:19:23;;;;;;;;;6.75;4.50;;;;;21.14;51.62;100415.34;5033318;28;48077;-79
2022/05/22 11:21:58;;;;;;;;;3.50;3.50;;;;;20.97;51.22;100420.00;5033897;28;45505;-79
2022/05/22 11:24:50;;;;;;;;;3.00;3.00;;;;;20.93;51.02;100424.72;5035927;28;45715;-78
2022/05/22 11:27:49;;;;;;;;;5.00;3.75;;;;;21.00;50.57;100417.13;5031888;28;45270;-81
2022/05/22 11:30:26;;;;;;;;;2.25;2.00;;;;;21.06;51.48;100408.66;5035895;28;46409;-81
2022/05/22 11:33:21;;;;;;;;;6.00;4.00;;;;;21.12;50.95;100405.56;5038430;28;45489;-83
2022/05/22 11:36:08;;;;;;;;;4.50;4.50;;;;;21.13;50.49;100406.41;5045124;28;45340;-83
2022/05/22 11:38:52;;;;;;;;;4.50;4.50;;;;;21.16;50.82;100403.50;5040505;28;45359;-77
2022/05/22 11:41:28;;;;;;;;;6.00;5.00;;;;;21.36;49.72;100415.59;5034850;28;45482;-79
2022/05/22 11:43:59;;;;;;;;;5.25;5.00;;;;;21.46;49.56;100411.34;5035543;28;45422;-79
2022/05/22 11:46:36;;;;;;;;;5.75;5.75;;;;;21.52;48.96;100409.25;5035310;28;45525;-78